Time;durP1;ratioP1;P1;durP2;ratioP2;P2;SDS_P1;SDS_P2;PMS_P1;PMS_P2;Temp;Humidity;BMP_temperature;BMP_pressure;BME280_temperature;BME280_humidity;BME280_pressure;Samples;Min_cycle;Max_cycle;Signal;HPM_P1;HPM_P2
2023/07/08 00:00:49;;;;;;;9.65;7.55;;;;;;;22.42;28.93;92005.16;5029404;28;20209;-87
2023/07/08 00:03:15;;;;;;;8.63;7.75;;;;;;;22.48;29.27;92071.97;5030392;28;20237;-85
2023/07/08 00:05:42;;;;;;;9.90;8.48;;;;;;;22.51;29.01;92073.94;5040799;28;20198;-85
2023/07/08 00:08:13;;;;;;;9.70;7.97;;;;;;;22.51;29.17;92106.16;5047805;28;20197;-86
2023/07/08 00:10:40;;;;;;;12.25;9.23;;;;;;;22.50;29.12;92099.38;5050333;28;20251;-86
2023/07/08 00:13:06;;;;;;;7.72;6.95;;;;;;;22.44;29.61;92129.56;5050503;28;20670;-85
2023/07/08 00:15:33;;;;;;;8.07;6.75;;;;;;;22.35;29.49;92107.94;5047869;28;20194;-85
2023/07/08 00:18:00;;;;;;;9.77;8.50;;;;;;;22.29;29.89;92106.69;5029513;28;20244;-84
2023/07/08 00:20:33;;;;;;;9.60;7.90;;;;;;;22.24;29.92;92128.66;5031043;28;20214;-85
2023/07/08 00:23:02;;;;;;;7.50;6.70;;;;;;;22.15;30.43;92148.97;5030864;28;20198;-85
2023/07/08 00:25:34;;;;;;;7.38;6.68;;;;;;;22.13;30.50;92208.06;5030578;28;20292;-84
2023/07/08 00:28:00;;;;;;;10.48;7.53;;;;;;;22.11;30.46;92211.00;5051907;28;20197;-85
2023/07/08 00:30:31;;;;;;;8.30;6.82;;;;;;;22.14;30.51;92241.75;5054304;28;20263;-84
2023/07/08 00:33:01;;;;;;;9.05;7.88;;;;;;;22.19;30.14;92244.16;5048343;28;20202;-85
2023/07/08 00:35:33;;;;;;;7.72;6.25;;;;;;;22.21;30.43;92302.25;5042562;28;20214;-84
2023/07/08 00:38:02;;;;;;;7.47;6.68;;;;;;;22.26;30.25;92311.75;5034361;28;20218;-85
2023/07/08 00:40:33;;;;;;;7.63;6.55;;;;;;;22.18;30.86;92349.31;5034559;28;20206;-86
2023/07/08 00:43:04;;;;;;;8.75;6.93;;;;;;;22.17;30.75;92355.63;5034575;28;20206;-85
2023/07/08 00:45:41;;;;;;;8.02;6.70;;;;;;;22.22;30.73;92382.41;5034012;28;20276;-86
2023/07/08 00:48:22;;;;;;;10.68;6.85;;;;;;;22.22;30.52;92368.53;5034893;28;20225;-85
2023/07/08 00:50:50;;;;;;;7.07;6.22;;;;;;;22.17;30.73;92360.88;5032314;28;20206;-85
2023/07/08 00:53:28;;;;;;;7.90;7.07;;;;;;;22.16;31.10;92419.63;5034040;28;20206;-84
2023/07/08 00:56:04;;;;;;;8.35;7.53;;;;;;;22.15;31.14;92450.28;5034650;28;20620;-84
2023/07/08 00:58:35;;;;;;;7.75;6.95;;;;;;;22.15;30.87;92426.72;5034055;28;20694;-86
2023/07/08 01:01:05;;;;;;;9.05;7.68;;;;;;;22.14;31.38;92477.59;5033970;28;20202;-83
2023/07/08 01:03:34;;;;;;;8.63;7.72;;;;;;;22.08;31.71;92499.84;5045134;28;20224;-85
2023/07/08 01:06:00;;;;;;;7.50;6.80;;;;;;;22.08;31.54;92493.84;5040596;28;20248;-85
2023/07/08 01:08:30;;;;;;;8.57;6.60;;;;;;;22.05;31.30;92472.44;5033902;28;20202;-84
2023/07/08 01:11:02;;;;;;;7.18;6.47;;;;;;;21.99;31.49;92455.34;5034420;28;20663;-85
2023/07/08 01:13:32;;;;;;;6.70;6.00;;;;;;;21.91;31.76;92461.47;5033955;28;20309;-85
2023/07/08 01:15:59;;;;;;;7.18;6.47;;;;;;;21.96;31.65;92495.28;5033699;28;20206;-84
2023/07/08 01:18:26;;;;;;;8.90;5.80;;;;;;;22.00;31.47;92509.31;5033790;28;20225;-85
2023/07/08 01:20:55;;;;;;;8.32;6.72;;;;;;;21.95;31.83;92559.25;5033641;28;20198;-88
2023/07/08 01:23:23;;;;;;;6.97;6.30;;;;;;;21.90;31.73;92530.66;5033312;28;20236;-89
2023/07/08 01:25:50;;;;;;;6.78;6.05;;;;;;;21.87;31.69;92526.06;5034159;28;20206;-87
2023/07/08 01:28:16;;;;;;;7.43;6.30;;;;;;;21.94;31.59;92562.97;5052868;28;20190;-88
2023/07/08 01:30:45;;;;;;;7.38;6.32;;;;;;;21.93;31.67;92577.16;5052855;28;20204;-87
2023/07/08 01:33:18;;;;;;;6.93;6.22;;;;;;;21.96;31.52;92573.13;5053206;28;20301;-87
2023/07/08 01:35:46;;;;;;;6.93;6.10;;;;;;;22.00;31.28;92553.09;5035802;28;20198;-87
2023/07/08 01:38:15;;;;;;;7.38;6.47;;;;;;;22.06;30.82;92546.56;5031362;28;20717;-86
2023/07/08 01:40:51;;;;;;;8.05;6.63;;;;;;;22.05;30.04;92396.47;5032276;28;20206;-87
2023/07/08 01:43:17;;;;;;;8.85;6.47;;;;;;;22.15;30.14;92431.19;5031812;28;20235;-87
2023/07/08 01:45:44;;;;;;;6.57;5.97;;;;;;;22.10;30.00;92379.00;5032697;28;20209;-87
2023/07/08 01:48:13;;;;;;;7.32;6.60;;;;;;;22.05;30.37;92417.44;5032791;28;20194;-88
2023/07/08 01:50:46;;;;;;;7.70;6.72;;;;;;;21.99;30.66;92426.53;5032208;28;20213;-88
2023/07/08 01:53:16;;;;;;;6.53;5.93;;;;;;;21.95;30.96;92458.94;5031017;28;20206;-88
2023/07/08 01:55:43;;;;;;;7.47;6.72;;;;;;;21.92;30.95;92430.81;5032497;28;20297;-89
2023/07/08 01:58:11;;;;;;;8.32;6.50;;;;;;;21.90;30.99;92432.97;5040474;28;20221;-87
2023/07/08 02:00:37;;;;;;;6.93;6.20;;;;;;;21.90;31.04;92446.06;5036898;28;20616;-88
2023/07/08 02:03:04;;;;;;;7.00;6.30;;;;;;;21.82;31.20;92431.19;5052610;28;20619;-87
2023/07/08 02:05:30;;;;;;;6.95;6.32;;;;;;;21.83;31.01;92435.34;5053241;28;20279;-89
2023/07/08 02:07:57;;;;;;;6.57;5.88;;;;;;;21.76;31.54;92446.34;5053809;28;20259;-87
2023/07/08 02:10:25;;;;;;;8.00;6.57;;;;;;;21.67;31.98;92487.56;5041781;28;20700;-88
2023/07/08 02:12:51;;;;;;;6.75;5.95;;;;;;;21.68;32.24;92533.59;5032132;28;20735;-88
2023/07/08 02:15:19;;;;;;;6.82;6.15;;;;;;;21.65;32.10;92549.94;5031827;28;20226;-87
2023/07/08 02:17:45;;;;;;;7.90;5.93;;;;;;;21.49;32.89;92534.03;5032169;28;20248;-87
2023/07/08 02:20:12;;;;;;;10.52;6.47;;;;;;;21.46;32.75;92553.00;5032285;28;20432;-87
2023/07/08 02:22:38;;;;;;;6.53;5.93;;;;;;;21.44;32.92;92593.66;5032770;28;20209;-87
2023/07/08 02:25:06;;;;;;;6.65;5.80;;;;;;;21.52;32.77;92635.50;5032295;28;20226;-87
2023/07/08 02:27:32;;;;;;;7.18;5.80;;;;;;;21.49;33.15;92672.78;5033761;28;20230;-89
2023/07/08 02:29:59;;;;;;;6.32;5.75;;;;;;;21.50;33.20;92690.03;5032354;28;20202;-87
2023/07/08 02:32:27;;;;;;;10.55;6.45;;;;;;;21.44;33.62;92696.50;5031479;28;20198;-88
2023/07/08 02:34:53;;;;;;;6.57;5.88;;;;;;;21.18;34.27;92687.94;5031886;28;20710;-87
2023/07/08 02:37:20;;;;;;;8.38;6.50;;;;;;;21.09;34.52;92706.28;5032796;28;20267;-88
2023/07/08 02:39:46;;;;;;;7.00;6.13;;;;;;;21.11;34.49;92795.72;5032657;28;20198;-87
2023/07/08 02:42:12;;;;;;;7.35;5.90;;;;;;;21.23;34.68;92869.13;5030172;28;20276;-87
2023/07/08 02:44:39;;;;;;;6.38;5.78;;;;;;;21.28;34.56;92907.47;5032884;28;20233;-87
2023/07/08 02:47:07;;;;;;;7.20;6.50;;;;;;;21.42;33.73;92883.75;5032439;28;20631;-88
2023/07/08 02:49:35;;;;;;;6.75;6.15;;;;;;;21.45;33.71;92917.94;5031244;28;20209;-87
2023/07/08 02:52:01;;;;;;;6.82;6.13;;;;;;;21.48;33.57;92919.94;5032043;28;20585;-90
2023/07/08 02:54:28;;;;;;;7.43;6.13;;;;;;;21.53;33.14;92884.97;5040337;28;20225;-88
2023/07/08 02:56:54;;;;;;;16.92;6.90;;;;;;;21.61;33.11;92933.94;5045439;28;20203;-88
2023/07/08 02:59:21;;;;;;;8.00;6.72;;;;;;;21.60;33.70;92969.06;5035455;28;20226;-88
2023/07/08 03:01:47;;;;;;;7.53;6.65;;;;;;;21.42;34.48;92985.84;5031344;28;20210;-87
2023/07/08 03:04:14;;;;;;;6.53;5.80;;;;;;;21.23;34.63;92971.19;5031416;28;20218;-87
2023/07/08 03:06:42;;;;;;;7.13;6.20;;;;;;;21.16;34.90;93017.19;5031686;28;20205;-88
2023/07/08 03:09:09;;;;;;;6.63;5.75;;;;;;;21.17;35.03;93092.75;5031597;28;20206;-87
2023/07/08 03:11:37;;;;;;;7.30;6.38;;;;;;;21.20;35.27;93164.66;5031305;28;20213;-87
2023/07/08 03:14:07;;;;;;;6.40;5.80;;;;;;;21.20;35.57;93228.25;5029481;28;20875;-87
2023/07/08 03:16:34;;;;;;;7.80;6.70;;;;;;;21.03;35.66;93197.50;5030093;28;20210;-87
2023/07/08 03:19:00;;;;;;;7.03;6.32;;;;;;;20.93;36.21;93242.25;5032405;28;20349;-87
2023/07/08 03:21:26;;;;;;;7.95;5.57;;;;;;;20.89;36.57;93288.38;5033046;28;20202;-88
2023/07/08 03:23:54;;;;;;;9.07;5.95;;;;;;;21.01;35.67;93295.66;5033536;28;20706;-88
2023/07/08 03:26:24;;;;;;;6.10;5.50;;;;;;;21.08;35.67;93326.66;5036425;28;20202;-89
2023/07/08 03:28:51;;;;;;;6.85;5.85;;;;;;;21.04;35.84;93340.34;5052976;28;20206;-87
2023/07/08 03:31:18;;;;;;;6.63;5.95;;;;;;;21.04;36.44;93395.28;5038126;28;20202;-88
2023/07/08 03:33:44;;;;;;;6.10;5.30;;;;;;;21.06;36.52;93441.31;5032299;28;20225;-88
2023/07/08 03:36:22;;;;;;;6.63;5.93;;;;;;;21.16;35.82;93431.41;5033549;28;20195;-89
2023/07/08 03:38:49;;;;;;;6.53;5.93;;;;;;;21.23;35.97;93449.34;5032338;28;20852;-86
2023/07/08 03:41:16;;;;;;;6.90;6.10;;;;;;;21.28;35.58;93452.63;5032077;28;20202;-84
2023/07/08 03:43:43;;;;;;;6.82;6.13;;;;;;;21.14;35.76;93373.38;5032506;28;20230;-85
2023/07/08 03:46:11;;;;;;;7.75;5.70;;;;;;;21.18;35.18;93349.97;5031212;28;20213;-85
2023/07/08 03:48:37;;;;;;;6.78;6.18;;;;;;;21.16;35.38;93352.13;5032189;28;20663;-86
2023/07/08 03:51:04;;;;;;;7.18;6.47;;;;;;;21.17;35.10;93336.09;5040479;28;20308;-84
2023/07/08 03:53:30;;;;;;;6.60;6.00;;;;;;;21.26;34.66;93344.84;5050679;28;20200;-86
2023/07/08 03:55:57;;;;;;;6.60;6.00;;;;;;;21.37;34.53;93364.47;5052317;28;20201;-86
2023/07/08 03:58:27;;;;;;;6.70;6.10;;;;;;;21.40;34.32;93368.34;5052092;28;20217;-85
2023/07/08 04:00:53;;;;;;;7.55;5.68;;;;;;;21.44;34.77;93405.94;5051491;28;20198;-84
2023/07/08 04:03:20;;;;;;;6.75;5.95;;;;;;;21.55;34.47;93427.44;5039964;28;20667;-86
2023/07/08 04:05:46;;;;;;;7.53;6.32;;;;;;;21.62;34.82;93488.03;5031577;28;20214;-86
2023/07/08 04:08:13;;;;;;;7.07;6.35;;;;;;;21.62;34.73;93477.53;5031266;28;20248;-84
2023/07/08 04:10:39;;;;;;;7.65;5.72;;;;;;;21.61;35.00;93487.25;5036891;28;20279;-85
2023/07/08 04:13:06;;;;;;;6.90;6.22;;;;;;;21.62;34.66;93448.75;5031083;28;20230;-85
2023/07/08 04:15:33;;;;;;;7.13;6.50;;;;;;;21.66;34.63;93468.03;5030898;28;20226;-84
2023/07/08 04:18:00;;;;;;;8.38;6.53;;;;;;;21.56;35.33;93474.25;5031130;28;20225;-86
2023/07/08 04:20:26;;;;;;;7.70;5.85;;;;;;;21.52;35.14;93446.38;5029865;28;20214;-87
2023/07/08 04:22:53;;;;;;;7.30;5.70;;;;;;;21.54;35.13;93442.38;5031654;28;20206;-84
2023/07/08 04:25:19;;;;;;;6.25;5.68;;;;;;;21.54;35.08;93449.47;5031831;28;20284;-86
2023/07/08 04:27:46;;;;;;;7.43;6.40;;;;;;;21.58;35.11;93453.78;5046464;28;20243;-89
2023/07/08 04:30:22;;;;;;;7.25;5.93;;;;;;;21.58;35.00;93453.00;5051498;28;20227;-84
2023/07/08 04:32:50;;;;;;;6.28;5.68;;;;;;;21.57;35.15;93443.59;5050861;28;20212;-88
2023/07/08 04:35:17;;;;;;;6.88;6.13;;;;;;;21.54;35.30;93458.09;5035920;28;20218;-86
2023/07/08 04:37:43;;;;;;;6.28;5.78;;;;;;;21.49;35.21;93415.53;5031098;28;20657;-89
2023/07/08 04:40:17;;;;;;;6.60;5.57;;;;;;;21.45;35.51;93440.75;5031676;28;20252;-85
2023/07/08 04:42:44;;;;;;;7.30;6.60;;;;;;;21.42;35.79;93464.91;5031202;28;20201;-85
2023/07/08 04:45:11;;;;;;;7.15;6.22;;;;;;;21.47;35.43;93459.56;5031107;28;20227;-87
2023/07/08 04:47:37;;;;;;;8.75;6.50;;;;;;;21.45;35.44;93453.84;5037738;28;20242;-87
2023/07/08 04:50:07;;;;;;;7.63;6.03;;;;;;;21.47;35.35;93443.84;5051892;28;20201;-88
2023/07/08 04:52:33;;;;;;;7.80;7.07;;;;;;;21.48;34.92;93427.06;5032241;28;20210;-88
2023/07/08 04:55:03;;;;;;;7.68;6.88;;;;;;;21.47;34.65;93394.88;5031186;28;20304;-87
2023/07/08 04:57:29;;;;;;;8.85;7.07;;;;;;;21.51;34.78;93387.22;5031610;28;20210;-87
2023/07/08 04:59:56;;;;;;;9.05;7.15;;;;;;;21.51;34.89;93408.16;5031005;28;20230;-87
2023/07/08 05:02:27;;;;;;;9.20;7.13;;;;;;;21.56;34.70;93429.75;5031185;28;20195;-87
2023/07/08 05:05:07;;;;;;;;;;;;;;;;;;;;;
2023/07/08 05:07:51;;;;;;;9.95;6.85;;;;;;;21.61;34.86;93453.19;4995469;28;20222;-88
2023/07/08 05:10:41;;;;;;;7.55;6.85;;;;;;;21.61;35.09;93489.88;5008122;28;20287;-89
2023/07/08 05:13:24;;;;;;;7.45;6.32;;;;;;;21.67;36.94;93716.56;5006170;28;20199;-85
2023/07/08 05:16:18;;;;;;;7.47;6.70;;;;;;;21.92;38.21;93976.56;5010909;28;20207;-86
2023/07/08 05:19:12;;;;;;;;;;;;;;;;;;;;;
2023/07/08 05:21:41;;;;;;;8.93;6.13;;;;;;;22.45;37.39;94137.00;5005533;28;20214;-84
2023/07/08 05:27:43;;;;;;;7.50;6.80;;;;;;;22.53;34.85;93756.00;4990850;28;20207;-89
2023/07/08 05:30:41;;;;;;;7.65;6.90;;;;;;;22.38;34.79;93698.63;5014703;28;20286;-91
2023/07/08 05:33:32;;;;;;;7.63;6.80;;;;;;;22.01;35.10;93518.84;5030906;28;20199;-88
2023/07/08 05:36:16;;;;;;;;;;;;;;;;;;;;;
2023/07/08 05:38:43;;;;;;;8.32;6.90;;;;;;;22.01;35.69;93627.06;5021295;28;20231;-90
2023/07/08 05:41:09;;;;;;;7.95;7.00;;;;;;;21.97;35.42;93575.53;5010939;28;20675;-89
2023/07/08 05:43:37;;;;;;;7.50;6.80;;;;;;;21.89;35.79;93552.66;5006250;28;20216;-89
2023/07/08 05:46:04;;;;;;;7.63;6.82;;;;;;;21.83;35.72;93536.28;4999413;28;20211;-89
2023/07/08 05:48:30;;;;;;;7.13;6.53;;;;;;;21.86;35.28;93464.94;5003414;28;20195;-89
2023/07/08 05:50:59;;;;;;;7.63;6.82;;;;;;;22.06;34.81;93555.44;5001727;28;20679;-89
2023/07/08 05:53:25;;;;;;;7.60;6.85;;;;;;;21.98;34.18;93377.91;4999605;28;20199;-89
2023/07/08 05:55:52;;;;;;;7.63;6.82;;;;;;;21.93;33.71;93291.59;5002293;28;20676;-88
2023/07/08 05:58:18;;;;;;;7.53;6.82;;;;;;;21.96;34.52;93419.38;4997425;28;20199;-89
2023/07/08 06:00:46;;;;;;;7.00;6.35;;;;;;;22.04;33.71;93358.41;4999822;28;20191;-87
2023/07/08 06:03:12;;;;;;;7.65;6.70;;;;;;;22.26;33.44;93439.63;5007034;28;20203;-88
2023/07/08 06:05:39;;;;;;;8.93;6.53;;;;;;;22.13;33.38;93325.13;5009539;28;20195;-88
2023/07/08 06:08:07;;;;;;;8.73;6.85;;;;;;;22.05;34.49;93396.66;5005284;28;20207;-87
2023/07/08 06:10:34;;;;;;;6.85;6.15;;;;;;;22.21;34.92;93546.44;5002961;28;20644;-88
2023/07/08 06:13:00;;;;;;;7.47;6.65;;;;;;;22.37;34.37;93563.34;5007471;28;20330;-88
2023/07/08 06:15:27;;;;;;;7.15;6.45;;;;;;;22.48;34.01;93548.94;5008090;28;20723;-86
2023/07/08 06:17:55;;;;;;;7.22;6.53;;;;;;;22.61;32.92;93465.97;5005011;28;20686;-86
2023/07/08 06:20:21;;;;;;;9.80;7.25;;;;;;;22.56;33.35;93450.38;5009143;28;20219;-85
2023/07/08 06:22:47;;;;;;;7.70;7.00;;;;;;;22.55;32.44;93333.41;5008577;28;20210;-85
2023/07/08 06:25:14;;;;;;;7.40;6.60;;;;;;;22.58;32.46;93298.72;5006655;28;20231;-85
2023/07/08 06:27:40;;;;;;;8.25;6.90;;;;;;;22.67;32.20;93326.50;5008151;28;20203;-86
2023/07/08 06:30:09;;;;;;;8.40;7.00;;;;;;;22.80;32.04;93366.84;5006509;28;20198;-86
2023/07/08 06:32:35;;;;;;;7.60;6.72;;;;;;;22.91;32.12;93404.81;5007762;28;20198;-86
2023/07/08 06:35:03;;;;;;;7.90;7.10;;;;;;;22.99;31.60;93363.91;5008766;28;20265;-85
2023/07/08 06:37:32;;;;;;;8.65;6.68;;;;;;;23.03;32.03;93415.50;5007518;28;20253;-85
2023/07/08 06:39:59;;;;;;;7.47;6.68;;;;;;;23.20;32.29;93526.88;5004085;28;20812;-86
2023/07/08 06:42:25;;;;;;;7.78;6.90;;;;;;;23.11;31.28;93313.44;5008224;28;20305;-86
2023/07/08 06:44:51;;;;;;;9.57;7.85;;;;;;;23.18;31.05;93308.50;5007918;28;20219;-85
2023/07/08 06:47:19;;;;;;;8.45;7.65;;;;;;;22.98;30.47;93092.84;5009912;28;20199;-85
2023/07/08 06:49:46;;;;;;;8.15;7.35;;;;;;;22.97;30.92;93128.03;5010131;28;20195;-86
2023/07/08 06:52:15;;;;;;;11.40;8.25;;;;;;;23.01;30.57;93113.22;5008741;28;20194;-85
2023/07/08 06:54:41;;;;;;;7.95;7.13;;;;;;;23.10;31.26;93239.16;5009654;28;20715;-87
2023/07/08 06:57:08;;;;;;;7.97;7.22;;;;;;;23.24;31.53;93338.75;5007627;28;20203;-87
2023/07/08 06:59:36;;;;;;;8.50;7.70;;;;;;;23.21;31.03;93227.25;5008772;28;20227;-87
2023/07/08 07:02:02;;;;;;;8.38;7.47;;;;;;;23.32;31.51;93362.38;4997792;28;20203;-88
2023/07/08 07:04:30;;;;;;;8.60;7.80;;;;;;;23.45;32.20;93486.75;5000778;28;20711;-87
2023/07/08 07:06:57;;;;;;;8.93;7.53;;;;;;;23.60;31.18;93418.03;5007096;28;20207;-87
2023/07/08 07:09:24;;;;;;;8.02;7.22;;;;;;;23.72;31.44;93496.22;5004084;28;20257;-87
2023/07/08 07:11:51;;;;;;;8.70;6.97;;;;;;;23.80;31.41;93473.66;5006950;28;20213;-88
2023/07/08 07:14:17;;;;;;;14.88;13.38;;;;;;;23.85;31.34;93457.72;5007315;28;20223;-87
2023/07/08 07:16:44;;;;;;;22.50;20.30;;;;;;;23.97;31.55;93557.75;4996267;28;20580;-88
2023/07/08 07:19:10;;;;;;;14.00;10.63;;;;;;;24.08;31.60;93567.63;5007003;28;20223;-87
2023/07/08 07:21:36;;;;;;;8.50;7.80;;;;;;;24.09;30.80;93456.13;5007647;28;20234;-87
2023/07/08 07:24:03;;;;;;;8.25;7.45;;;;;;;24.09;30.67;93418.53;5007201;28;20292;-88
2023/07/08 07:26:32;;;;;;;7.75;6.95;;;;;;;24.10;30.41;93376.16;5006862;28;20660;-87
2023/07/08 07:28:58;;;;;;;8.35;7.55;;;;;;;24.20;30.81;93450.56;5006824;28;20199;-87
2023/07/08 07:31:25;;;;;;;7.97;6.82;;;;;;;24.18;31.63;93482.41;5007743;28;20205;-87
2023/07/08 07:33:52;;;;;;;8.45;7.45;;;;;;;24.27;31.77;93566.56;5009610;28;20794;-87
2023/07/08 07:36:21;;;;;;;11.00;7.55;;;;;;;24.31;31.53;93523.56;5000164;28;20720;-88
2023/07/08 07:38:47;;;;;;;8.88;7.53;;;;;;;24.32;30.79;93461.97;5014318;28;20213;-87
2023/07/08 07:41:14;;;;;;;8.40;7.60;;;;;;;24.27;30.77;93380.63;5007178;28;20210;-87
2023/07/08 07:43:43;;;;;;;9.65;7.18;;;;;;;24.27;30.83;93406.91;5008065;28;20713;-87
2023/07/08 07:46:10;;;;;;;8.43;7.25;;;;;;;24.27;30.49;93338.53;5008421;28;20199;-87
2023/07/08 07:48:37;;;;;;;13.77;12.48;;;;;;;24.31;30.06;93323.69;5008656;28;20253;-86
2023/07/08 07:51:05;;;;;;;11.00;9.90;;;;;;;24.41;29.56;93301.50;5009951;28;20624;-87
2023/07/08 07:53:32;;;;;;;8.43;7.53;;;;;;;24.39;28.16;93057.22;5010007;28;20205;-87
2023/07/08 07:56:03;;;;;;;8.80;7.90;;;;;;;24.38;27.42;92963.63;5002066;28;20294;-86
2023/07/08 07:58:30;;;;;;;10.13;8.10;;;;;;;24.48;27.78;93046.59;5007587;28;20737;-87
2023/07/08 08:00:58;;;;;;;9.80;7.25;;;;;;;24.43;27.79;93002.88;5010845;28;20222;-88
2023/07/08 08:03:27;;;;;;;9.27;7.82;;;;;;;24.53;28.52;93124.53;5003909;28;20206;-87
2023/07/08 08:06:12;;;;;;;9.60;8.27;;;;;;;24.52;29.11;93151.94;5008416;28;20675;-89
2023/07/08 08:08:56;;;;;;;10.02;7.30;;;;;;;24.52;28.29;93073.03;5008083;28;20268;-89
2023/07/08 08:12:02;;;;;;;8.60;7.63;;;;;;;24.61;29.04;93163.19;5008134;28;20226;-89
2023/07/08 08:15:09;;;;;;;8.95;7.28;;;;;;;24.47;28.89;93054.81;5004032;28;20215;-90
2023/07/08 08:17:48;;;;;;;8.65;7.10;;;;;;;24.57;29.57;93163.03;4918838;29;20229;-90
2023/07/08 08:20:44;;;;;;;;;;;;;;;;;;;;;
2023/07/08 08:23:24;;;;;;;8.75;7.65;;;;;;;24.79;30.24;93325.13;4995510;28;20203;-89
2023/07/08 08:25:53;;;;;;;9.00;8.07;;;;;;;24.86;30.81;93401.69;5007880;28;20236;-89
2023/07/08 08:28:20;;;;;;;8.65;7.00;;;;;;;24.98;30.01;93408.94;5007171;28;20667;-89
2023/07/08 08:31:08;;;;;;;9.18;7.15;;;;;;;24.99;29.93;93318.34;5003410;28;20286;-89
2023/07/08 08:33:57;;;;;;;;;;;;;;;;;;;;;
2023/07/08 08:36:24;;;;;;;11.27;7.70;;;;;;;25.11;29.75;93323.66;5007735;28;20726;-88
2023/07/08 08:38:50;;;;;;;9.23;6.65;;;;;;;25.17;29.55;93338.19;5006391;28;20215;-86
2023/07/08 08:41:19;;;;;;;8.07;7.28;;;;;;;25.26;29.35;93317.78;5005746;28;20215;-87
2023/07/08 08:43:48;;;;;;;13.35;12.02;;;;;;;25.36;29.31;93314.00;5003456;28;20254;-86
2023/07/08 08:46:27;;;;;;;16.20;14.05;;;;;;;25.55;28.23;93331.97;5005286;28;20211;-87
2023/07/08 08:49:03;;;;;;;11.27;10.13;;;;;;;25.60;28.86;93371.25;5011426;28;20566;-87
2023/07/08 08:51:32;;;;;;;8.15;7.32;;;;;;;25.63;28.50;93288.94;4997656;28;20198;-87
2023/07/08 08:54:00;;;;;;;7.97;7.13;;;;;;;25.63;28.56;93287.09;5011374;28;20269;-87
2023/07/08 08:56:30;;;;;;;9.98;6.82;;;;;;;25.57;28.28;93195.38;5011887;28;20203;-86
2023/07/08 08:59:04;;;;;;;7.43;6.75;;;;;;;25.52;28.41;93148.91;5011723;28;20685;-87
2023/07/08 09:01:31;;;;;;;7.50;6.78;;;;;;;25.65;28.13;93163.66;5011554;28;20687;-87
2023/07/08 09:04:04;;;;;;;10.77;6.65;;;;;;;25.76;27.63;93133.13;4993310;28;20230;-87
2023/07/08 09:06:34;;;;;;;9.48;7.05;;;;;;;25.96;27.37;93201.91;4992769;28;20210;-88
2023/07/08 09:09:04;;;;;;;7.90;6.60;;;;;;;26.00;27.27;93171.09;5005978;28;20281;-86
2023/07/08 09:11:41;;;;;;;7.55;6.78;;;;;;;25.87;27.06;93020.06;5011616;28;20199;-87
2023/07/08 09:14:16;;;;;;;10.70;6.63;;;;;;;25.90;27.44;93068.75;5011280;28;20225;-87
2023/07/08 09:16:50;;;;;;;6.68;6.07;;;;;;;25.89;27.22;93032.94;5012774;28;20206;-87
2023/07/08 09:19:23;;;;;;;8.98;6.70;;;;;;;26.12;27.60;93179.78;4995332;28;20214;-87
2023/07/08 09:21:58;;;;;;;7.47;6.50;;;;;;;26.27;28.19;93257.47;5008097;28;20215;-88
2023/07/08 09:24:32;;;;;;;7.05;6.35;;;;;;;26.30;27.38;93227.81;5009151;28;20229;-87
2023/07/08 09:27:01;;;;;;;10.45;9.38;;;;;;;26.25;27.20;93064.44;5010477;28;20195;-87
2023/07/08 09:29:28;;;;;;;11.50;10.45;;;;;;;26.25;27.85;93119.84;4999552;28;20206;-87
2023/07/08 09:31:55;;;;;;;8.50;7.65;;;;;;;26.38;27.35;93120.59;4989385;28;20207;-87
2023/07/08 09:37:26;;;;;;;9.43;6.10;;;;;;;26.46;26.52;93022.06;4994241;28;20218;-87
2023/07/08 09:39:52;;;;;;;6.95;6.10;;;;;;;26.37;26.61;92932.50;5011337;28;20222;-88
2023/07/08 09:42:22;;;;;;;6.88;6.28;;;;;;;26.39;26.51;92903.13;5009579;28;20273;-86
2023/07/08 09:44:49;;;;;;;7.60;6.88;;;;;;;26.47;26.88;92952.34;5010731;28;20253;-87
2023/07/08 09:47:22;;;;;;;6.60;5.82;;;;;;;26.75;26.35;93044.66;5010002;28;20203;-87
2023/07/08 09:49:53;;;;;;;7.13;5.93;;;;;;;26.98;26.37;93130.16;5010033;28;20592;-86
2023/07/08 09:52:20;;;;;;;7.20;6.18;;;;;;;27.05;26.42;93114.50;5010938;28;20207;-86
2023/07/08 09:54:47;;;;;;;7.35;6.03;;;;;;;27.06;25.83;93041.31;5009435;28;20222;-86
2023/07/08 09:57:26;;;;;;;7.03;6.32;;;;;;;27.23;26.28;93117.56;5011056;28;20226;-86
2023/07/08 09:59:56;;;;;;;10.32;8.13;;;;;;;27.40;25.14;93022.09;5010312;28;20229;-86
2023/07/08 10:05:28;;;;;;;9.68;7.50;;;;;;;27.69;23.48;92904.53;4997995;28;20425;-88
2023/07/08 10:07:56;;;;;;;9.00;6.63;;;;;;;27.82;22.79;92818.63;4999887;28;20195;-88
2023/07/08 10:10:30;;;;;;;7.53;6.00;;;;;;;27.97;22.81;92866.47;4999434;28;20195;-87
2023/07/08 10:13:00;;;;;;;6.68;6.07;;;;;;;28.11;22.95;92920.41;5005546;28;20294;-88
2023/07/08 10:15:32;;;;;;;7.03;6.40;;;;;;;28.26;22.94;92913.53;5010030;28;20218;-87
2023/07/08 10:17:59;;;;;;;7.20;5.50;;;;;;;28.25;21.85;92744.53;5001063;28;20222;-87
2023/07/08 10:20:44;;;;;;;7.32;5.65;;;;;;;28.23;22.05;92707.06;4998966;28;20311;-88
2023/07/08 10:23:23;;;;;;;6.82;5.30;;;;;;;28.31;21.94;92653.88;5002096;28;20198;-88
2023/07/08 10:26:09;;;;;;;7.72;5.28;;;;;;;28.50;21.60;92642.38;5001760;28;20485;-89
2023/07/08 10:28:57;;;;;;;6.20;5.60;;;;;;;28.72;21.41;92773.91;5002174;28;20199;-88
2023/07/08 10:31:55;;;;;;;6.78;5.45;;;;;;;28.84;20.60;92638.66;5000244;28;20576;-88
2023/07/08 11:09:52;;;;;;;20.98;7.15;;;;;;;30.11;17.34;92139.34;5105913;23;20300;-83
2023/07/08 11:12:27;;;;;;;6.15;5.55;;;;;;;30.03;18.43;92139.72;4990161;28;20203;-84
2023/07/08 11:18:51;;;;;;;8.15;7.40;;;;;;;29.94;19.41;92128.72;4880572;29;20254;-89
2023/07/08 11:21:39;;;;;;;10.55;7.22;;;;;;;29.82;20.15;92117.38;4985468;28;20729;-88
2023/07/08 11:31:31;;;;;;;6.63;6.03;;;;;;;30.62;17.54;92058.38;4909308;29;20201;-88
2023/07/08 11:44:25;;;;;;;6.10;5.22;;;;;;;30.90;16.71;91750.06;4903084;23;20317;-87
2023/07/08 11:47:01;;;;;;;6.82;5.88;;;;;;;30.91;16.63;91687.81;5004755;28;20286;-86
2023/07/08 11:49:30;;;;;;;7.60;6.90;;;;;;;31.00;16.26;91673.28;5016081;28;20207;-87
2023/07/08 11:51:58;;;;;;;12.43;11.32;;;;;;;31.07;16.29;91553.63;5024133;28;20195;-87
2023/07/08 11:54:30;;;;;;;6.68;6.07;;;;;;;31.10;15.65;91447.31;5024689;28;20590;-86
2023/07/08 11:57:01;;;;;;;6.95;5.85;;;;;;;31.12;15.33;91351.28;5015112;28;20229;-86
2023/07/08 11:59:31;;;;;;;5.70;5.20;;;;;;;31.33;14.73;91392.66;5009377;28;20195;-87
2023/07/08 12:06:10;;;;;;;6.70;6.10;;;;;;;31.57;15.30;91487.13;4960846;23;20258;-87
2023/07/08 12:08:46;;;;;;;12.10;6.40;;;;;;;31.70;16.33;91617.63;4954172;28;20207;-90
2023/07/08 12:11:30;;;;;;;8.05;6.43;;;;;;;31.80;15.20;91459.75;4971007;28;20207;-88
2023/07/08 12:14:03;;;;;;;6.85;5.55;;;;;;;31.72;15.81;91410.53;4961399;28;20240;-88
2023/07/08 12:20:12;;;;;;;6.47;5.90;;;;;;;31.84;16.74;91509.06;4936501;28;20209;-87
2023/07/08 12:25:40;;;;;;;6.20;5.68;;;;;;;31.60;15.16;91021.00;4956095;28;20334;-87
2023/07/08 12:31:39;;;;;;;6.47;5.88;;;;;;;32.02;12.96;90848.16;4960424;28;20250;-88
2023/07/08 12:34:16;;;;;;;6.43;5.93;;;;;;;32.09;14.05;90928.50;4965328;28;20228;-88
2023/07/08 12:36:45;;;;;;;6.88;6.15;;;;;;;32.25;13.49;90967.63;4955682;28;20210;-91
2023/07/08 12:39:41;;;;;;;6.50;5.90;;;;;;;32.25;12.29;90654.31;4958199;28;20283;-88
2023/07/08 13:14:15;;;;;;;5.80;5.30;;;;;;;31.22;13.75;90090.91;5394890;23;20232;-88
2023/07/08 13:20:55;;;;;;;;;;;;;;;;;;;;;
2023/07/08 13:33:34;;;;;;;5.65;5.05;;;;;;;31.19;14.11;90158.94;4811729;29;20218;-87
2023/07/08 14:02:49;;;;;;;7.32;5.07;;;;;;;32.24;10.75;89830.63;4930163;28;20216;-86
2023/07/08 14:05:20;;;;;;;7.05;5.15;;;;;;;32.33;11.37;89861.75;4987522;28;20663;-87
2023/07/08 14:11:39;;;;;;;;;;;;;;;;;;;;;
2023/07/08 14:14:58;;;;;;;4.80;4.40;;;;;;;32.62;9.36;89597.63;4922293;29;20241;-89
2023/07/08 14:27:13;;;;;;;6.43;5.68;;;;;;;31.83;10.39;89268.47;5718249;23;20999;-87
2023/07/08 14:30:04;;;;;;;6.97;5.05;;;;;;;31.67;10.65;89234.41;4993625;28;20207;-88
2023/07/08 15:50:32;;;;;;;4.88;4.30;;;;;;;31.05;10.83;88724.84;5142397;23;20238;-88
2023/07/08 15:52:59;;;;;;;6.57;4.32;;;;;;;31.11;11.50;88853.84;4989386;28;20609;-86
2023/07/08 16:02:47;;;;;;;6.07;4.60;;;;;;;31.16;11.28;88815.28;4937277;28;20227;-86
2023/07/08 16:05:33;;;;;;;4.88;4.05;;;;;;;31.15;11.29;88720.88;4989606;28;20231;-89
2023/07/08 16:19:53;;;;;;;5.25;4.40;;;;;;;31.13;11.21;88941.72;4848178;23;20245;-87
2023/07/08 16:22:38;;;;;;;4.82;4.22;;;;;;;31.13;11.22;88952.34;5009225;28;20222;-86